KRIC/RIC METAR and TAF weather

Enter ICAO airport designator
Station Type Date Time Source
KRIC METAR 2019/07/20 04:54 UTC NOAA

KRIC 200454Z 20005KT 10SM FEW070 27/25 A2994 RMK AO2 SLP141 T02720250 403500239


Station Type Date Time Source
KRIC Decoded METAR 2019/07/20 04:54 UTC NOAA

RICHMOND INTERNATIONAL AIRPORT, VA, United States (KRIC) 37-31N 077-19W 50M
Jul 20, 2019 - 12:54 AM EDT / 2019.07.20 0454 UTC
Wind: from the SSW (200 degrees) at 6 MPH (5 KT):0
Visibility: 10 mile(s):0
Sky conditions: mostly clear
Temperature: 81.0 F (27.2 C)
Dew Point: 77.0 F (25.0 C)
Relative Humidity: 87%
Pressure (altimeter): 29.94 in. Hg (1013 hPa)
ob: KRIC 200454Z 20005KT 10SM FEW070 27/25 A2994 RMK AO2 SLP141 T02720250 403500239
cycle: 5

Station Type Date Time Source
KRIC TAF 2019/07/20 06:34 UTC NOAA

TAF KRIC 200532Z 2006/2106 20005KT P6SM SKC
FM201100 25005KT P6SM SKC
FM201700 23008KT P6SM SCT050

Example: see airport list